createdAt,value
2018-07-19T00:02:54.264Z,15.70
2018-07-19T00:06:05.340Z,15.70
2018-07-19T00:09:15.945Z,15.50
2018-07-19T00:12:26.887Z,15.50
2018-07-19T00:15:37.927Z,15.40
2018-07-19T00:18:48.487Z,15.40
2018-07-19T00:21:58.451Z,15.20
2018-07-19T00:25:09.170Z,15.10
2018-07-19T00:28:19.920Z,15.10
2018-07-19T00:31:30.523Z,15.20
2018-07-19T00:34:40.650Z,15.20
2018-07-19T00:37:51.632Z,15.30
2018-07-19T00:41:02.594Z,15.00
2018-07-19T00:44:14.180Z,14.90
2018-07-19T00:47:25.267Z,14.80
2018-07-19T00:50:35.516Z,14.90
2018-07-19T00:53:46.389Z,14.90
2018-07-19T00:56:57.297Z,14.80
2018-07-19T01:00:08.173Z,14.90
2018-07-19T01:03:18.165Z,14.80
2018-07-19T01:06:29.087Z,14.60
2018-07-19T01:09:39.886Z,14.40
2018-07-19T01:12:50.624Z,14.40
2018-07-19T01:16:00.977Z,14.30
2018-07-19T01:19:11.764Z,14.30
2018-07-19T01:22:21.759Z,14.40
2018-07-19T01:25:32.631Z,14.30
2018-07-19T01:28:43.449Z,14.20
2018-07-19T01:31:54.606Z,14.10
2018-07-19T01:35:06.620Z,14.00
2018-07-19T01:38:17.542Z,14.00
2018-07-19T01:42:41.293Z,13.90
2018-07-19T01:45:52.200Z,13.80
2018-07-19T01:49:02.817Z,13.80
2018-07-19T01:52:14.165Z,13.80
2018-07-19T01:55:24.349Z,13.80
2018-07-19T01:58:34.665Z,13.70
2018-07-19T02:01:45.542Z,13.70
2018-07-19T02:04:56.296Z,13.60
2018-07-19T02:08:07.096Z,13.60
2018-07-19T02:11:18.204Z,13.70
2018-07-19T02:14:29.203Z,13.60
2018-07-19T02:17:40.254Z,13.60
2018-07-19T02:20:51.102Z,13.40
2018-07-19T02:24:01.758Z,13.50
2018-07-19T02:27:11.717Z,13.30
2018-07-19T02:30:22.869Z,13.20
2018-07-19T02:33:33.365Z,13.20
2018-07-19T02:36:44.602Z,13.30
2018-07-19T02:39:55.313Z,13.20
2018-07-19T02:43:06.110Z,13.30
2018-07-19T02:46:16.838Z,13.10
2018-07-19T02:49:27.599Z,12.90
2018-07-19T02:52:38.525Z,12.90
2018-07-19T02:55:49.362Z,12.90
2018-07-19T02:58:59.996Z,12.90
2018-07-19T03:02:11.067Z,13.00
2018-07-19T03:05:21.537Z,12.80
2018-07-19T03:08:32.074Z,12.70
2018-07-19T03:11:42.875Z,12.70
2018-07-19T03:14:54.771Z,12.60
2018-07-19T03:18:05.605Z,12.60
2018-07-19T03:21:16.035Z,12.50
2018-07-19T03:24:26.171Z,12.60
2018-07-19T03:27:36.153Z,12.50
2018-07-19T03:30:46.882Z,12.60
2018-07-19T03:33:57.830Z,12.60
2018-07-19T03:37:08.883Z,12.50
2018-07-19T03:40:19.584Z,12.50
2018-07-19T03:43:30.419Z,12.40
2018-07-19T03:46:41.072Z,12.50
2018-07-19T03:49:51.757Z,12.50
2018-07-19T03:53:01.747Z,12.40
2018-07-19T03:56:14.458Z,12.40
2018-07-19T03:59:25.484Z,12.40
2018-07-19T04:02:36.205Z,12.30
2018-07-19T04:05:46.844Z,12.20
2018-07-19T04:08:57.646Z,12.20
2018-07-19T04:12:08.363Z,12.20
2018-07-19T04:15:19.575Z,12.30
2018-07-19T04:18:29.974Z,12.30
2018-07-19T04:21:39.908Z,12.20
2018-07-19T04:24:50.848Z,12.20
2018-07-19T04:28:01.459Z,12.10
2018-07-19T04:31:12.312Z,12.20
2018-07-19T04:34:23.301Z,12.10
2018-07-19T04:37:33.822Z,12.30
2018-07-19T04:40:44.572Z,12.30
2018-07-19T04:43:54.655Z,12.30
2018-07-19T04:47:04.941Z,12.50
2018-07-19T04:50:15.422Z,12.70
2018-07-19T04:53:26.171Z,12.80
2018-07-19T04:56:36.802Z,12.80
2018-07-19T04:59:46.674Z,12.90
2018-07-19T05:02:57.547Z,13.00
2018-07-19T05:06:08.577Z,13.10
2018-07-19T05:09:19.758Z,13.40
2018-07-19T05:15:40.760Z,13.70
2018-07-19T05:18:51.022Z,13.80
2018-07-19T05:22:01.026Z,14.00
2018-07-19T05:25:11.002Z,14.10
2018-07-19T05:28:21.529Z,14.20
2018-07-19T05:31:32.222Z,14.50
2018-07-19T05:34:42.366Z,14.60
2018-07-19T05:37:52.477Z,14.70
2018-07-19T05:41:03.191Z,14.80
2018-07-19T05:44:13.076Z,14.90
2018-07-19T05:47:23.893Z,15.00
2018-07-19T05:50:34.830Z,15.00
2018-07-19T05:53:44.775Z,15.20
2018-07-19T05:56:54.726Z,15.20
2018-07-19T06:00:05.518Z,15.30
2018-07-19T06:03:16.031Z,15.50
2018-07-19T06:06:26.786Z,15.70
2018-07-19T06:09:36.697Z,15.80
2018-07-19T06:12:47.614Z,15.90
2018-07-19T06:15:58.827Z,16.00
2018-07-19T06:19:09.619Z,16.10
2018-07-19T06:22:20.946Z,16.20
2018-07-19T06:25:32.147Z,16.30
2018-07-19T06:28:42.695Z,16.40
2018-07-19T06:31:53.464Z,16.40
2018-07-19T06:35:04.406Z,16.40
2018-07-19T06:38:15.555Z,16.70
2018-07-19T06:41:26.097Z,16.70
2018-07-19T06:44:36.380Z,16.80
2018-07-19T06:47:46.320Z,17.00
2018-07-19T06:50:56.302Z,17.20
2018-07-19T06:54:06.378Z,17.30
2018-07-19T06:57:17.066Z,17.20
2018-07-19T07:00:28.411Z,17.50
2018-07-19T07:03:39.178Z,17.40
2018-07-19T07:06:49.838Z,17.70
2018-07-19T07:10:00.893Z,17.70
2018-07-19T07:13:11.001Z,17.80
2018-07-19T07:16:21.991Z,18.00
2018-07-19T07:19:32.664Z,18.20
2018-07-19T07:22:43.139Z,18.30
2018-07-19T07:25:54.686Z,18.40
2018-07-19T07:32:14.495Z,18.50
2018-07-19T07:35:24.788Z,18.60
2018-07-19T07:38:34.753Z,18.90
2018-07-19T07:41:45.688Z,18.80
2018-07-19T07:44:56.316Z,18.70
2018-07-19T07:48:07.080Z,18.80
2018-07-19T07:51:17.564Z,19.10
2018-07-19T07:54:28.285Z,19.30
2018-07-19T07:57:39.157Z,19.50
2018-07-19T08:00:49.774Z,19.40
2018-07-19T08:03:59.864Z,19.60
2018-07-19T08:07:10.606Z,19.70
2018-07-19T08:10:21.557Z,19.80
2018-07-19T08:13:31.777Z,19.90
2018-07-19T08:16:42.882Z,20.00
2018-07-19T08:19:53.216Z,20.10
2018-07-19T08:23:03.884Z,20.40
2018-07-19T08:26:14.773Z,20.30
2018-07-19T08:29:25.353Z,20.40
2018-07-19T08:32:36.331Z,20.30
2018-07-19T08:35:46.983Z,20.50
2018-07-19T08:38:57.954Z,20.80
2018-07-19T08:42:08.974Z,20.80
2018-07-19T08:45:19.559Z,20.90
2018-07-19T08:48:30.390Z,21.20
2018-07-19T08:51:41.313Z,21.30
2018-07-19T08:54:51.890Z,21.40
2018-07-19T08:58:02.692Z,21.30
2018-07-19T09:01:13.233Z,21.50
2018-07-19T09:04:24.156Z,21.70
2018-07-19T09:07:35.108Z,21.50
2018-07-19T09:10:46.269Z,21.60
2018-07-19T09:13:57.063Z,21.60
2018-07-19T09:17:08.407Z,21.70
2018-07-19T09:20:18.488Z,21.90
2018-07-19T09:23:29.295Z,22.20
2018-07-19T09:26:40.099Z,22.40
2018-07-19T09:29:51.421Z,22.40
2018-07-19T09:33:01.918Z,22.40
2018-07-19T09:36:12.344Z,22.60
2018-07-19T09:39:23.157Z,22.40
2018-07-19T09:42:33.730Z,22.30
2018-07-19T09:45:44.381Z,22.60
2018-07-19T09:48:54.044Z,22.70
2018-07-19T09:52:04.614Z,22.60
2018-07-19T09:55:14.952Z,22.70
2018-07-19T09:58:25.340Z,22.90
2018-07-19T10:01:35.092Z,23.00
2018-07-19T10:04:45.192Z,23.10
2018-07-19T10:07:55.088Z,23.10
2018-07-19T10:11:05.918Z,23.40
2018-07-19T10:14:15.775Z,23.60
2018-07-19T10:17:25.700Z,23.50
2018-07-19T10:20:35.982Z,23.20
2018-07-19T10:23:46.558Z,23.10
2018-07-19T10:26:56.454Z,23.20
2018-07-19T10:30:07.575Z,23.30
2018-07-19T10:33:18.498Z,23.50
2018-07-19T10:36:29.088Z,23.70
2018-07-19T10:40:42.427Z,24.00
2018-07-19T10:43:53.119Z,23.70
2018-07-19T10:47:03.720Z,23.70
2018-07-19T10:50:13.635Z,23.70
2018-07-19T10:53:23.368Z,23.90
2018-07-19T10:56:33.028Z,23.70
2018-07-19T10:59:42.871Z,23.80
2018-07-19T11:02:52.701Z,24.00
2018-07-19T11:06:02.461Z,24.10
2018-07-19T11:09:17.763Z,24.20
2018-07-19T11:12:28.285Z,24.20
2018-07-19T11:15:37.915Z,24.00
2018-07-19T11:18:47.946Z,23.90
2018-07-19T11:21:58.444Z,24.20
2018-07-19T11:25:08.444Z,24.10
2018-07-19T11:28:18.238Z,24.30
2018-07-19T11:31:29.002Z,24.50
2018-07-19T11:34:38.696Z,24.40
2018-07-19T11:37:48.712Z,24.70
2018-07-19T11:40:58.524Z,24.60
2018-07-19T11:44:09.004Z,24.60
2018-07-19T11:47:19.079Z,24.70
2018-07-19T11:50:28.965Z,24.70
2018-07-19T11:53:39.103Z,24.80
2018-07-19T11:56:49.032Z,25.00
2018-07-19T11:59:58.719Z,25.10
2018-07-19T12:03:08.674Z,25.10
2018-07-19T12:06:19.299Z,25.30
2018-07-19T12:09:28.909Z,25.30
2018-07-19T12:12:38.708Z,25.30
2018-07-19T12:15:48.364Z,25.30
2018-07-19T12:18:58.387Z,25.30
2018-07-19T12:22:08.464Z,25.40
2018-07-19T12:25:18.177Z,25.40
2018-07-19T12:28:28.017Z,25.80
2018-07-19T12:31:37.777Z,25.80
2018-07-19T12:34:47.438Z,25.50
2018-07-19T12:37:57.251Z,25.80
2018-07-19T12:41:07.447Z,25.80
2018-07-19T12:44:18.323Z,25.90
2018-07-19T12:47:28.973Z,25.80
2018-07-19T12:50:39.255Z,25.70
2018-07-19T12:53:49.657Z,25.90
2018-07-19T12:57:00.553Z,26.00
2018-07-19T13:00:11.184Z,26.10
2018-07-19T13:03:21.009Z,26.00
2018-07-19T13:06:30.937Z,26.00
2018-07-19T13:09:40.764Z,26.00
2018-07-19T13:12:51.193Z,26.00
2018-07-19T13:16:01.610Z,26.00
2018-07-19T13:19:11.881Z,26.10
2018-07-19T13:22:22.334Z,26.00
2018-07-19T13:25:32.946Z,26.10
2018-07-19T13:31:52.518Z,26.00
2018-07-19T13:35:02.185Z,26.20
2018-07-19T13:38:12.044Z,25.90
2018-07-19T13:41:21.737Z,25.80
2018-07-19T13:44:31.628Z,26.20
2018-07-19T13:47:41.394Z,26.30
2018-07-19T13:50:51.537Z,26.30
2018-07-19T13:54:50.433Z,26.40
2018-07-19T13:58:00.575Z,26.00
2018-07-19T14:01:10.345Z,26.00
2018-07-19T14:04:20.049Z,26.00
2018-07-19T14:07:30.160Z,26.10
2018-07-19T14:10:40.354Z,26.20
2018-07-19T14:13:50.479Z,26.10
2018-07-19T14:17:00.492Z,26.10
2018-07-19T14:20:10.771Z,26.00
2018-07-19T14:23:21.554Z,26.20
2018-07-19T14:26:31.987Z,26.40
2018-07-19T14:29:41.630Z,26.30
2018-07-19T14:32:51.530Z,26.50
2018-07-19T14:36:01.987Z,26.50
2018-07-19T14:39:13.467Z,26.80
2018-07-19T14:42:23.496Z,27.00
2018-07-19T14:45:33.258Z,27.20
2018-07-19T14:48:43.240Z,27.40
2018-07-19T14:51:52.839Z,27.50
2018-07-19T14:55:02.653Z,27.30
2018-07-19T14:58:12.346Z,27.30
2018-07-19T15:01:22.267Z,27.40
2018-07-19T15:04:31.994Z,27.30
2018-07-19T15:07:42.430Z,27.10
2018-07-19T15:10:52.890Z,27.30
2018-07-19T15:14:03.164Z,27.50
2018-07-19T15:17:14.337Z,27.00
2018-07-19T15:20:25.067Z,27.10
2018-07-19T15:23:35.764Z,27.00
2018-07-19T15:26:45.489Z,27.10
2018-07-19T15:29:55.895Z,27.10
2018-07-19T15:33:05.726Z,26.80
2018-07-19T15:36:15.395Z,26.80
2018-07-19T15:39:25.922Z,27.00
2018-07-19T15:42:35.524Z,26.60
2018-07-19T15:45:45.452Z,26.80
2018-07-19T15:48:55.487Z,26.70
2018-07-19T15:52:05.478Z,26.60
2018-07-19T15:55:15.522Z,26.70
2018-07-19T15:58:25.446Z,26.40
2018-07-19T16:01:35.592Z,26.50
2018-07-19T16:04:47.300Z,26.30
2018-07-19T16:08:00.430Z,26.80
2018-07-19T16:11:10.852Z,26.70
2018-07-19T16:14:20.961Z,26.50
2018-07-19T16:17:30.853Z,26.60
2018-07-19T16:20:41.685Z,26.60
2018-07-19T16:23:52.189Z,26.60
2018-07-19T16:27:01.761Z,26.50
2018-07-19T16:30:12.150Z,26.30
2018-07-19T16:33:21.914Z,26.40
2018-07-19T16:36:31.997Z,26.40
2018-07-19T16:39:42.110Z,26.30
2018-07-19T16:42:52.027Z,26.30
2018-07-19T16:46:02.181Z,26.50
2018-07-19T16:49:11.991Z,26.20
2018-07-19T16:52:21.876Z,26.00
2018-07-19T16:55:32.475Z,26.00
2018-07-19T16:58:42.271Z,25.90
2018-07-19T17:01:52.391Z,25.80
2018-07-19T17:05:02.922Z,25.60
2018-07-19T17:08:12.538Z,25.60
2018-07-19T17:11:22.438Z,25.60
2018-07-19T17:14:32.139Z,25.60
2018-07-19T17:17:42.149Z,25.50
2018-07-19T17:20:52.003Z,25.50
2018-07-19T17:24:02.260Z,25.50
2018-07-19T17:27:13.491Z,25.50
2018-07-19T17:33:37.163Z,25.40
2018-07-19T17:36:47.216Z,25.20
2018-07-19T17:39:57.659Z,25.10
2018-07-19T17:43:38.419Z,25.10
2018-07-19T17:46:48.745Z,25.00
2018-07-19T17:49:59.429Z,25.00
2018-07-19T17:53:09.198Z,25.00
2018-07-19T17:56:19.111Z,24.90
2018-07-19T17:59:28.838Z,24.80
2018-07-19T18:02:39.126Z,24.80
2018-07-19T18:05:49.526Z,24.80
2018-07-19T18:09:00.794Z,24.70
2018-07-19T18:12:11.482Z,24.70
2018-07-19T18:15:22.073Z,24.60
2018-07-19T18:18:32.067Z,24.50
2018-07-19T18:21:42.928Z,24.40
2018-07-19T18:24:53.059Z,24.40
2018-07-19T18:28:02.870Z,24.40
2018-07-19T18:31:13.466Z,24.30
2018-07-19T18:34:23.295Z,24.20
2018-07-19T18:37:33.895Z,24.20
2018-07-19T18:40:43.496Z,24.10
2018-07-19T18:43:54.617Z,24.00
2018-07-19T18:47:04.889Z,23.90
2018-07-19T18:50:14.742Z,23.80
2018-07-19T18:53:24.649Z,23.70
2018-07-19T18:56:35.535Z,23.70
2018-07-19T18:59:47.077Z,23.50
2018-07-19T19:02:57.555Z,23.40
2018-07-19T19:06:07.864Z,23.30
2018-07-19T19:09:20.877Z,23.20
2018-07-19T19:12:31.213Z,23.00
2018-07-19T19:15:41.160Z,22.80
2018-07-19T19:18:54.197Z,22.70
2018-07-19T19:22:04.826Z,22.40
2018-07-19T19:25:15.156Z,22.10
2018-07-19T19:28:25.269Z,22.00
2018-07-19T19:31:36.466Z,22.00
2018-07-19T19:34:47.400Z,21.80
2018-07-19T19:37:57.981Z,21.70
2018-07-19T19:41:08.828Z,21.60
2018-07-19T19:44:18.506Z,21.60
2018-07-19T19:47:29.598Z,21.60
2018-07-19T19:50:40.325Z,21.30
2018-07-19T19:53:51.044Z,21.10
2018-07-19T19:57:00.917Z,20.90
2018-07-19T20:00:11.579Z,20.90
2018-07-19T20:03:21.637Z,20.80
2018-07-19T20:06:32.219Z,20.60
2018-07-19T20:09:42.183Z,20.60
2018-07-19T20:12:52.977Z,20.40
2018-07-19T20:16:03.899Z,20.40
2018-07-19T20:19:14.804Z,20.30
2018-07-19T20:22:25.884Z,20.30
2018-07-19T20:25:36.108Z,20.20
2018-07-19T20:28:46.317Z,19.90
2018-07-19T20:31:57.097Z,19.70
2018-07-19T20:35:07.796Z,19.70
2018-07-19T20:38:17.783Z,19.70
2018-07-19T20:41:28.497Z,19.60
2018-07-19T20:44:39.279Z,19.50
2018-07-19T20:47:50.119Z,19.50
2018-07-19T20:51:00.441Z,19.40
2018-07-19T20:57:20.970Z,19.10
2018-07-19T21:00:31.837Z,18.90
2018-07-19T21:03:41.764Z,18.80
2018-07-19T21:06:53.483Z,18.70
2018-07-19T21:10:04.531Z,18.90
2018-07-19T21:13:14.919Z,18.60
2018-07-19T21:16:25.603Z,18.50
2018-07-19T21:19:35.589Z,18.40
2018-07-19T21:22:46.209Z,18.30
2018-07-19T21:25:56.491Z,18.30
2018-07-19T21:29:07.085Z,18.20
2018-07-19T21:32:18.274Z,18.20
2018-07-19T21:35:29.068Z,18.00
2018-07-19T21:38:39.013Z,17.90
2018-07-19T21:41:49.824Z,17.90
2018-07-19T21:45:00.633Z,17.90
2018-07-19T21:48:11.701Z,17.70
2018-07-19T21:51:23.041Z,17.70
2018-07-19T21:54:33.389Z,17.60
2018-07-19T21:57:43.439Z,17.70
2018-07-19T22:00:59.650Z,17.40
2018-07-19T22:04:09.849Z,17.40
2018-07-19T22:07:19.907Z,17.40
2018-07-19T22:10:30.719Z,17.30
2018-07-19T22:13:40.872Z,17.30
2018-07-19T22:16:51.595Z,17.40
2018-07-19T22:20:01.620Z,17.40
2018-07-19T22:23:12.825Z,17.50
2018-07-19T22:26:23.498Z,17.40
2018-07-19T22:29:34.367Z,17.40
2018-07-19T22:32:45.107Z,17.50
2018-07-19T22:35:55.596Z,17.50
2018-07-19T22:39:14.533Z,17.60
2018-07-19T22:45:35.097Z,17.40
2018-07-19T22:48:45.772Z,17.40
2018-07-19T22:51:55.926Z,17.40
2018-07-19T22:55:06.448Z,17.40
2018-07-19T22:58:17.095Z,17.40
2018-07-19T23:01:27.825Z,17.40
2018-07-19T23:04:38.660Z,17.40
2018-07-19T23:07:48.567Z,17.40
2018-07-19T23:10:59.247Z,17.30
2018-07-19T23:14:09.069Z,17.30
2018-07-19T23:17:19.896Z,17.30
2018-07-19T23:20:30.073Z,17.30
2018-07-19T23:23:41.223Z,17.20
2018-07-19T23:26:51.875Z,17.20
2018-07-19T23:30:04.298Z,17.20
2018-07-19T23:33:14.775Z,17.10
2018-07-19T23:36:27.856Z,17.10
2018-07-19T23:40:43.446Z,17.10
2018-07-19T23:43:58.107Z,17.10
2018-07-19T23:47:11.926Z,17.00
2018-07-19T23:50:22.247Z,16.90
2018-07-19T23:53:32.200Z,16.90
2018-07-19T23:56:42.355Z,16.90
2018-07-19T23:59:53.115Z,16.70
